Time;durP1;ratioP1;P1;durP2;ratioP2;P2;SDS_P1;SDS_P2;PMS_P1;PMS_P2;Temp;Humidity;BMP_temperature;BMP_pressure;BME280_temperature;BME280_humidity;BME280_pressure;Samples;Min_cycle;Max_cycle;Signal;HPM_P1;HPM_P2
2022/01/10 00:01:57;;;;;;;2.10;2.00;;;16.30;66.20;;;;;;5067351;28;43924;-70
2022/01/10 00:04:25;;;;;;;2.20;2.20;;;16.30;66.20;;;;;;5066701;28;45786;-70
2022/01/10 00:06:53;;;;;;;2.40;2.30;;;16.30;66.40;;;;;;5067611;28;43485;-70
2022/01/10 00:09:21;;;;;;;2.40;2.30;;;16.30;66.50;;;;;;5068533;28;43913;-70
2022/01/10 00:11:49;;;;;;;2.07;2.00;;;16.20;66.50;;;;;;5067101;28;43832;-70
2022/01/10 00:14:16;;;;;;;1.97;1.97;;;16.20;67.40;;;;;;5067872;28;43950;-70
2022/01/10 00:16:46;;;;;;;2.00;2.00;;;16.10;66.70;;;;;;5068030;28;44027;-69
2022/01/10 00:19:16;;;;;;;2.00;2.00;;;16.10;66.80;;;;;;5068127;28;44022;-69
2022/01/10 00:21:44;;;;;;;2.60;2.50;;;16.10;66.90;;;;;;5068472;28;43618;-70
2022/01/10 00:24:14;;;;;;;2.27;2.27;;;16.10;67.00;;;;;;5067845;28;43943;-70
2022/01/10 00:26:42;;;;;;;2.30;2.20;;;16.10;67.00;;;;;;5066281;28;44863;-70
2022/01/10 00:29:10;;;;;;;2.10;2.10;;;16.10;67.00;;;;;;5067935;28;43462;-69
2022/01/10 00:31:40;;;;;;;2.30;2.20;;;16.10;67.10;;;;;;5068139;28;44068;-70
2022/01/10 00:34:08;;;;;;;2.40;2.30;;;16.00;67.10;;;;;;5067938;28;43982;-69
2022/01/10 00:36:38;;;;;;;2.23;2.13;;;16.10;67.30;;;;;;5066563;28;45386;-70
2022/01/10 00:39:06;;;;;;;2.20;2.20;;;16.20;67.00;;;;;;5068018;28;43416;-69
2022/01/10 00:41:34;;;;;;;2.40;2.30;;;16.30;66.70;;;;;;5068232;28;43460;-69
2022/01/10 00:44:04;;;;;;;1.93;1.93;;;16.40;66.30;;;;;;5067367;28;43944;-69
2022/01/10 00:46:32;;;;;;;2.40;2.30;;;16.50;65.80;;;;;;5066040;28;45439;-70
2022/01/10 00:49:00;;;;;;;2.00;2.00;;;16.60;65.60;;;;;;5067742;28;43946;-70
2022/01/10 00:51:29;;;;;;;1.83;1.83;;;16.50;65.50;;;;;;5067115;28;44206;-70
2022/01/10 00:53:58;;;;;;;2.17;2.07;;;16.50;65.80;;;;;;5067432;28;43954;-70
2022/01/10 00:56:29;;;;;;;2.03;2.03;;;16.40;65.80;;;;;;5067267;28;44027;-70
2022/01/10 00:58:57;;;;;;;2.10;2.10;;;16.30;66.00;;;;;;5067679;28;43353;-70
2022/01/10 01:01:24;;;;;;;2.23;2.23;;;16.30;66.20;;;;;;5067787;28;43982;-69
2022/01/10 01:03:53;;;;;;;2.10;2.10;;;16.30;66.40;;;;;;5065853;28;47000;-69
2022/01/10 01:06:21;;;;;;;1.93;1.93;;;16.20;66.40;;;;;;5066837;28;43994;-69
2022/01/10 01:08:49;;;;;;;2.20;2.20;;;16.20;66.60;;;;;;5066022;28;44069;-70
2022/01/10 01:14:11;;;;;;;2.27;2.20;;;16.10;66.70;;;;;;5049168;28;44181;-69
2022/01/10 01:16:46;;;;;;;2.23;2.13;;;16.10;66.90;;;;;;5067351;28;43945;-69
2022/01/10 01:24:50;;;;;;;2.50;2.40;;;16.30;67.00;;;;;;5065542;28;45525;-70
2022/01/10 01:27:19;;;;;;;2.23;2.23;;;16.30;66.30;;;;;;5065780;28;45053;-71
2022/01/10 01:29:47;;;;;;;2.00;2.00;;;16.30;66.40;;;;;;5065534;28;43945;-70
2022/01/10 01:32:15;;;;;;;2.03;2.03;;;16.20;66.50;;;;;;5065873;28;44042;-70
2022/01/10 01:34:44;;;;;;;2.10;2.10;;;16.20;66.60;;;;;;5066704;28;44373;-69
2022/01/10 01:37:13;;;;;;;1.93;1.93;;;16.10;66.60;;;;;;5066441;28;44026;-70
2022/01/10 01:39:41;;;;;;;2.10;2.10;;;16.10;66.70;;;;;;5066952;28;43964;-70
2022/01/10 01:42:31;;;;;;;2.23;2.23;;;16.10;66.70;;;;;;5067347;28;43966;-70
2022/01/10 01:45:01;;;;;;;1.90;1.90;;;16.10;66.90;;;;;;5058375;28;45769;-69
2022/01/10 01:47:29;;;;;;;1.83;1.83;;;16.10;66.90;;;;;;5058801;28;45234;-70
2022/01/10 01:50:02;;;;;;;2.10;2.10;;;16.10;67.00;;;;;;5060451;28;44019;-69
2022/01/10 01:52:30;;;;;;;2.13;2.13;;;16.10;67.00;;;;;;5065665;28;43940;-69
2022/01/10 01:54:59;;;;;;;2.07;2.07;;;16.10;67.00;;;;;;5065149;28;45979;-69
2022/01/10 01:57:27;;;;;;;2.03;2.00;;;16.10;67.20;;;;;;5064981;28;44351;-69
2022/01/10 01:59:56;;;;;;;2.27;2.27;;;16.10;67.00;;;;;;5065536;28;43916;-71
2022/01/10 02:02:28;;;;;;;2.10;2.00;;;16.30;66.70;;;;;;5065749;28;43932;-70
2022/01/10 02:04:59;;;;;;;2.03;2.03;;;16.40;66.30;;;;;;5065124;28;45484;-71
2022/01/10 02:07:27;;;;;;;2.07;2.07;;;16.50;65.70;;;;;;5065792;28;43912;-71
2022/01/10 02:09:55;;;;;;;2.30;2.20;;;16.50;65.40;;;;;;5066459;28;43936;-70
2022/01/10 02:12:24;;;;;;;2.27;2.20;;;16.50;65.40;;;;;;5065398;28;43975;-70
2022/01/10 02:14:53;;;;;;;2.30;2.30;;;16.50;65.60;;;;;;5064854;28;45945;-70
2022/01/10 02:17:32;;;;;;;2.27;2.27;;;16.40;65.80;;;;;;5064502;28;44411;-71
2022/01/10 02:20:08;;;;;;;2.23;2.23;;;16.30;66.00;;;;;;5065180;28;43967;-71
2022/01/10 02:22:38;;;;;;;2.27;2.23;;;16.30;66.30;;;;;;5067124;28;43940;-70
2022/01/10 02:25:30;;;;;;;2.07;2.07;;;16.20;66.30;;;;;;5045701;28;44120;-71
2022/01/10 02:28:00;;;;;;;1.93;1.93;;;16.20;66.50;;;;;;5065113;28;43947;-70
2022/01/10 02:30:28;;;;;;;2.30;2.30;;;16.10;67.20;;;;;;5064792;28;44062;-71
2022/01/10 02:33:15;;;;;;;2.50;2.40;;;16.10;67.40;;;;;;5066013;28;43533;-70
2022/01/10 02:35:53;;;;;;;2.20;2.20;;;16.10;66.70;;;;;;5063998;28;45712;-70
2022/01/10 02:38:21;;;;;;;2.40;2.40;;;16.10;66.90;;;;;;5066265;28;43907;-70
2022/01/10 02:40:51;;;;;;;2.37;2.37;;;16.20;66.90;;;;;;5064783;28;43980;-70
2022/01/10 02:43:19;;;;;;;2.50;2.40;;;16.30;66.50;;;;;;5060181;28;44410;-71
2022/01/10 02:45:48;;;;;;;2.30;2.30;;;16.30;66.30;;;;;;5051038;28;44121;-70
2022/01/10 02:48:16;;;;;;;2.57;2.53;;;16.30;66.20;;;;;;5057829;28;44889;-70
2022/01/10 02:50:45;;;;;;;2.50;2.50;;;16.30;66.30;;;;;;5044601;28;44011;-70
2022/01/10 02:53:13;;;;;;;2.77;2.67;;;16.20;66.20;;;;;;5060019;28;43976;-70
2022/01/10 02:55:42;;;;;;;2.20;2.20;;;16.20;66.40;;;;;;5064400;28;44092;-70
2022/01/10 02:58:11;;;;;;;2.50;2.40;;;16.20;66.60;;;;;;5064380;28;44988;-70
2022/01/10 03:00:39;;;;;;;2.43;2.43;;;16.10;66.60;;;;;;5065962;28;43900;-70
2022/01/10 03:03:07;;;;;;;2.77;2.67;;;16.10;66.70;;;;;;5065033;28;44171;-70
2022/01/10 03:05:36;;;;;;;2.50;2.50;;;16.10;66.80;;;;;;5064149;28;44109;-72
2022/01/10 03:08:06;;;;;;;2.23;2.23;;;16.10;66.80;;;;;;5064207;28;45992;-70
2022/01/10 03:10:34;;;;;;;2.40;2.40;;;16.10;66.90;;;;;;5064772;28;43971;-71
2022/01/10 03:13:02;;;;;;;2.40;2.40;;;16.00;66.90;;;;;;5064617;28;44169;-71
2022/01/10 03:15:30;;;;;;;2.50;2.50;;;16.00;66.90;;;;;;5067811;28;45474;-70
2022/01/10 03:17:59;;;;;;;2.47;2.37;;;16.00;67.00;;;;;;5068662;28;43357;-70
2022/01/10 03:20:27;;;;;;;2.53;2.53;;;16.00;67.20;;;;;;5067724;28;43403;-70
2022/01/10 03:22:55;;;;;;;2.83;2.73;;;16.10;66.90;;;;;;5069237;28;43881;-71
2022/01/10 03:25:24;;;;;;;2.70;2.70;;;16.30;66.70;;;;;;5068958;28;43615;-70
2022/01/10 03:27:57;;;;;;;2.90;2.80;;;16.40;66.20;;;;;;5067258;28;44566;-70
2022/01/10 03:30:26;;;;;;;2.33;2.33;;;16.50;65.70;;;;;;5067610;28;43391;-71
2022/01/10 03:32:54;;;;;;;2.20;2.20;;;16.50;65.50;;;;;;5067776;28;43871;-71
2022/01/10 03:35:27;;;;;;;2.30;2.30;;;16.50;65.50;;;;;;5067545;28;43935;-70
2022/01/10 03:37:56;;;;;;;2.70;2.60;;;16.40;65.60;;;;;;5066937;28;44057;-70
2022/01/10 03:40:28;;;;;;;2.30;2.30;;;16.30;65.80;;;;;;5067412;28;43924;-70
2022/01/10 03:43:01;;;;;;;2.53;2.53;;;16.30;66.00;;;;;;5067696;28;43423;-70
2022/01/10 03:45:29;;;;;;;2.63;2.57;;;16.20;66.10;;;;;;5068346;28;44098;-70
2022/01/10 03:47:57;;;;;;;2.47;2.37;;;16.20;66.20;;;;;;5068276;28;44043;-70
2022/01/10 03:50:27;;;;;;;2.63;2.53;;;16.20;66.40;;;;;;5067317;28;43890;-70
2022/01/10 03:52:56;;;;;;;2.43;2.43;;;16.20;66.50;;;;;;5067481;28;43444;-71
2022/01/10 03:55:24;;;;;;;2.60;2.50;;;16.10;66.40;;;;;;5067405;28;46782;-70
2022/01/10 03:57:55;;;;;;;2.63;2.53;;;16.10;66.50;;;;;;5066693;28;43974;-71
2022/01/10 04:00:23;;;;;;;2.53;2.53;;;16.10;67.50;;;;;;5068328;28;44024;-70
2022/01/10 04:02:55;;;;;;;2.37;2.37;;;16.10;66.70;;;;;;5068719;28;43426;-70
2022/01/10 04:05:28;;;;;;;2.67;2.57;;;16.20;66.40;;;;;;5066527;28;44308;-71
2022/01/10 04:07:56;;;;;;;2.50;2.40;;;16.30;66.20;;;;;;5061618;28;43897;-70
2022/01/10 04:10:24;;;;;;;2.40;2.40;;;16.30;66.10;;;;;;5061778;28;43396;-71
2022/01/10 04:12:53;;;;;;;2.80;2.70;;;16.20;66.20;;;;;;5061001;28;43580;-71
2022/01/10 04:15:22;;;;;;;2.50;2.50;;;16.20;66.20;;;;;;5076928;28;45457;-70
2022/01/10 04:17:55;;;;;;;2.67;2.57;;;16.20;66.30;;;;;;5061739;28;44156;-69
2022/01/10 04:20:24;;;;;;;2.50;2.50;;;16.10;66.40;;;;;;5047771;28;44052;-69
2022/01/10 04:22:53;;;;;;;2.60;2.50;;;16.10;66.40;;;;;;5067141;28;44083;-71
2022/01/10 04:25:21;;;;;;;2.50;2.50;;;16.10;66.50;;;;;;5066467;28;45008;-70
2022/01/10 04:27:49;;;;;;;2.93;2.87;;;16.10;66.60;;;;;;5066650;28;44226;-70
2022/01/10 04:30:27;;;;;;;2.70;2.60;;;16.00;66.60;;;;;;5066541;28;43958;-70
2022/01/10 04:32:57;;;;;;;2.67;2.60;;;16.00;66.60;;;;;;5066851;28;43415;-70
2022/01/10 04:35:25;;;;;;;2.63;2.57;;;16.00;66.60;;;;;;5066262;28;44051;-69
2022/01/10 04:37:53;;;;;;;2.30;2.30;;;16.00;66.70;;;;;;5066236;28;46307;-70
2022/01/10 04:40:23;;;;;;;2.83;2.63;;;16.00;66.90;;;;;;5066327;28;43925;-70
2022/01/10 04:42:52;;;;;;;2.60;2.50;;;16.10;67.00;;;;;;5066720;28;43980;-71
2022/01/10 04:45:21;;;;;;;3.50;3.30;;;16.20;66.80;;;;;;5065793;28;44930;-70
2022/01/10 04:47:50;;;;;;;3.60;3.40;;;16.30;66.40;;;;;;5066468;28;44364;-69
2022/01/10 04:50:43;;;;;;;3.67;3.47;;;16.40;65.90;;;;;;5066231;28;43355;-70
2022/01/10 04:53:12;;;;;;;5.53;4.07;;;16.60;65.50;;;;;;5066436;28;43954;-70
2022/01/10 04:55:40;;;;;;;6.77;4.07;;;16.50;65.00;;;;;;5065922;28;44031;-70
2022/01/10 04:58:08;;;;;;;5.40;3.87;;;16.50;65.20;;;;;;5066263;28;43984;-70
2022/01/10 05:00:36;;;;;;;4.50;4.10;;;16.40;65.40;;;;;;5066246;28;43888;-70
2022/01/10 05:03:06;;;;;;;5.13;3.83;;;16.40;65.70;;;;;;5067944;28;44045;-70
2022/01/10 05:05:34;;;;;;;5.40;4.57;;;16.30;65.80;;;;;;5065725;28;45506;-70
2022/01/10 05:08:02;;;;;;;5.80;4.60;;;16.30;66.10;;;;;;5065874;28;45339;-70
2022/01/10 05:10:31;;;;;;;4.60;4.20;;;16.20;66.10;;;;;;5065882;28;43908;-71
2022/01/10 05:12:59;;;;;;;4.80;4.40;;;16.20;66.20;;;;;;5066172;28;43984;-71
2022/01/10 05:15:27;;;;;;;4.83;4.43;;;16.10;66.30;;;;;;5066919;28;44237;-70
2022/01/10 05:17:55;;;;;;;5.13;4.50;;;16.10;66.40;;;;;;5067077;28;43939;-72
2022/01/10 05:20:24;;;;;;;5.23;4.30;;;16.10;66.60;;;;;;5067361;28;44062;-70
2022/01/10 05:22:52;;;;;;;5.90;4.50;;;16.10;66.70;;;;;;5066052;28;43967;-70
2022/01/10 05:25:21;;;;;;;5.83;4.70;;;16.20;66.50;;;;;;5067054;28;44930;-70
2022/01/10 05:27:49;;;;;;;6.70;4.77;;;16.30;66.20;;;;;;5065617;28;44720;-71
2022/01/10 05:30:16;;;;;;;4.63;4.23;;;16.30;66.10;;;;;;5065438;28;43837;-70
2022/01/10 05:32:45;;;;;;;5.33;4.43;;;16.20;66.00;;;;;;5065945;28;44147;-70
2022/01/10 05:35:25;;;;;;;6.40;4.77;;;16.20;66.10;;;;;;5065368;28;44039;-71
2022/01/10 05:37:53;;;;;;;4.17;3.80;;;16.20;66.20;;;;;;5064941;28;43957;-70
2022/01/10 05:40:21;;;;;;;4.60;3.70;;;16.10;66.30;;;;;;5065518;28;44012;-70
2022/01/10 05:42:49;;;;;;;4.50;4.10;;;16.10;66.40;;;;;;5065737;28;43646;-71
2022/01/10 05:45:17;;;;;;;4.80;4.40;;;16.10;66.50;;;;;;5065122;28;46657;-71
2022/01/10 05:47:46;;;;;;;4.60;4.20;;;16.10;66.60;;;;;;5065317;28;44992;-71
2022/01/10 05:50:18;;;;;;;4.70;4.30;;;16.10;66.70;;;;;;5065299;28;44003;-71
2022/01/10 05:52:49;;;;;;;5.37;4.60;;;16.10;66.70;;;;;;5065640;28;44252;-70
2022/01/10 05:55:19;;;;;;;5.10;4.60;;;16.00;66.70;;;;;;5065084;28;44034;-71
2022/01/10 05:57:49;;;;;;;4.67;4.27;;;16.00;66.70;;;;;;5065690;28;44493;-71
2022/01/10 06:00:18;;;;;;;5.27;4.40;;;16.00;66.70;;;;;;5065198;28;43801;-70
2022/01/10 06:02:46;;;;;;;5.27;4.77;;;16.00;66.90;;;;;;5066773;28;43911;-70
2022/01/10 06:05:29;;;;;;;4.40;4.00;;;16.10;66.80;;;;;;5064761;28;45490;-70
2022/01/10 06:07:58;;;;;;;6.53;4.77;;;16.20;66.50;;;;;;5064837;28;44074;-70
2022/01/10 06:10:27;;;;;;;4.60;4.00;;;16.40;66.10;;;;;;5065067;28;43738;-71
2022/01/10 06:13:01;;;;;;;5.90;4.30;;;16.50;65.60;;;;;;5065270;28;43384;-70
2022/01/10 06:15:29;;;;;;;4.40;4.00;;;16.60;65.30;;;;;;5064745;28;46106;-71
2022/01/10 06:17:57;;;;;;;6.13;4.60;;;16.50;65.10;;;;;;5064911;28;43901;-70
2022/01/10 06:20:26;;;;;;;4.50;4.00;;;16.50;65.30;;;;;;5065099;28;43367;-70
2022/01/10 06:22:54;;;;;;;4.00;3.70;;;16.40;65.40;;;;;;5066545;28;43844;-70
2022/01/10 06:25:24;;;;;;;4.20;3.80;;;16.30;65.60;;;;;;5064725;28;46095;-70
2022/01/10 06:27:53;;;;;;;3.80;3.60;;;16.30;65.80;;;;;;5064823;28;43913;-71
2022/01/10 06:30:21;;;;;;;4.30;4.00;;;16.20;65.90;;;;;;5064748;28;44084;-70
2022/01/10 06:32:49;;;;;;;3.80;3.60;;;16.20;66.20;;;;;;5065048;28;43989;-70
2022/01/10 06:35:20;;;;;;;4.97;4.47;;;16.10;66.20;;;;;;5064581;28;44132;-70
2022/01/10 06:37:49;;;;;;;4.13;3.73;;;16.10;66.30;;;;;;5064671;28;43945;-71
2022/01/10 06:40:18;;;;;;;4.20;3.90;;;16.10;66.40;;;;;;5064303;28;44041;-70
2022/01/10 06:42:50;;;;;;;4.57;4.03;;;16.10;66.70;;;;;;5064844;28;43496;-71
2022/01/10 06:45:21;;;;;;;4.10;3.80;;;16.10;66.70;;;;;;5064489;28;43903;-71
2022/01/10 06:47:49;;;;;;;3.60;3.40;;;16.20;66.40;;;;;;5064486;28;44620;-70
2022/01/10 06:50:17;;;;;;;4.20;3.80;;;16.20;66.00;;;;;;5067446;28;43886;-71
2022/01/10 06:52:46;;;;;;;4.30;4.00;;;16.20;66.00;;;;;;5068297;28;44265;-70
2022/01/10 06:55:14;;;;;;;3.77;3.50;;;16.20;66.10;;;;;;5067779;28;45021;-71
2022/01/10 06:57:44;;;;;;;3.97;3.73;;;16.10;66.20;;;;;;5067944;28;43875;-70
2022/01/10 07:00:16;;;;;;;3.83;3.60;;;16.10;66.40;;;;;;5067928;28;44025;-71
2022/01/10 07:02:50;;;;;;;3.73;3.43;;;16.10;66.50;;;;;;5068351;28;44057;-71
2022/01/10 07:05:18;;;;;;;4.03;3.73;;;16.00;66.60;;;;;;5067781;28;44950;-70
2022/01/10 07:07:50;;;;;;;3.47;3.27;;;16.00;66.70;;;;;;5067781;28;44095;-72
2022/01/10 07:10:30;;;;;;;3.73;3.53;;;16.00;66.80;;;;;;5062860;28;43884;-71
2022/01/10 07:12:59;;;;;;;3.97;3.67;;;15.90;66.70;;;;;;5067988;28;43416;-70
2022/01/10 07:15:29;;;;;;;3.80;3.60;;;15.90;66.80;;;;;;5067622;28;45721;-72
2022/01/10 07:18:01;;;;;;;4.13;3.77;;;15.90;66.90;;;;;;5067798;28;45193;-70
2022/01/10 07:20:33;;;;;;;4.07;3.77;;;15.90;66.90;;;;;;5067449;28;43915;-70
2022/01/10 07:23:03;;;;;;;3.83;3.63;;;16.00;67.00;;;;;;5067667;28;44358;-70
2022/01/10 07:25:32;;;;;;;3.77;3.57;;;16.00;67.00;;;;;;5068572;28;43964;-71
2022/01/10 07:27:59;;;;;;;3.97;3.67;;;16.10;66.70;;;;;;5068525;28;43925;-70
2022/01/10 07:30:29;;;;;;;3.47;3.27;;;16.30;66.30;;;;;;5068560;28;43762;-71
2022/01/10 07:32:57;;;;;;;3.40;3.20;;;16.40;65.80;;;;;;5068543;28;44038;-70
2022/01/10 07:35:25;;;;;;;3.83;3.57;;;16.50;65.40;;;;;;5068243;28;43963;-70
2022/01/10 07:37:53;;;;;;;3.93;3.73;;;16.50;65.30;;;;;;5067003;28;45139;-71
2022/01/10 07:40:20;;;;;;;3.70;3.50;;;16.50;65.30;;;;;;5068609;28;43369;-71
2022/01/10 07:42:48;;;;;;;3.40;3.30;;;16.40;65.40;;;;;;5068639;28;44071;-71
2022/01/10 07:45:30;;;;;;;3.43;3.33;;;16.40;65.70;;;;;;5066555;28;45999;-70
2022/01/10 07:47:58;;;;;;;3.40;3.30;;;16.30;65.70;;;;;;5068088;28;44033;-71
2022/01/10 07:50:26;;;;;;;3.60;3.40;;;16.30;65.90;;;;;;5068318;28;43790;-71
2022/01/10 07:52:54;;;;;;;3.40;3.20;;;16.20;65.90;;;;;;5068981;28;43581;-71
2022/01/10 07:55:22;;;;;;;3.40;3.20;;;16.20;66.00;;;;;;5067942;28;43943;-69
2022/01/10 07:57:50;;;;;;;3.50;3.30;;;16.20;66.10;;;;;;5068079;28;44000;-72
2022/01/10 08:00:18;;;;;;;3.30;3.10;;;16.10;66.10;;;;;;5067752;28;43972;-70
2022/01/10 08:02:47;;;;;;;3.27;3.07;;;16.10;66.20;;;;;;5068623;28;43454;-70
2022/01/10 08:05:15;;;;;;;3.70;3.50;;;16.10;66.50;;;;;;5067906;28;44015;-71
2022/01/10 08:07:43;;;;;;;3.67;3.50;;;16.20;66.50;;;;;;5067572;28;44051;-71
2022/01/10 08:10:11;;;;;;;3.97;3.67;;;16.30;66.20;;;;;;5067916;28;43925;-72
2022/01/10 08:12:39;;;;;;;3.73;3.53;;;16.30;65.90;;;;;;5068340;28;44023;-71
2022/01/10 08:15:08;;;;;;;3.53;3.33;;;16.30;65.90;;;;;;5067889;28;43870;-71
2022/01/10 08:17:36;;;;;;;3.63;3.43;;;16.20;65.90;;;;;;5067849;28;43967;-71
2022/01/10 08:20:07;;;;;;;3.60;3.40;;;16.20;66.00;;;;;;5068125;28;44035;-70
2022/01/10 08:22:35;;;;;;;3.80;3.50;;;16.10;66.10;;;;;;5061962;28;43834;-70
2022/01/10 08:25:03;;;;;;;3.53;3.43;;;16.10;66.30;;;;;;5061078;28;44141;-71
2022/01/10 08:27:31;;;;;;;3.87;3.67;;;16.10;66.40;;;;;;5061055;28;44029;-71
2022/01/10 08:29:59;;;;;;;3.70;3.50;;;16.10;66.50;;;;;;5059775;28;44053;-71
2022/01/10 08:32:27;;;;;;;3.90;3.70;;;16.00;66.50;;;;;;5061607;28;43900;-70
2022/01/10 08:34:55;;;;;;;3.57;3.37;;;16.00;66.60;;;;;;5061079;28;44854;-71
2022/01/10 08:37:25;;;;;;;3.27;3.13;;;16.00;66.70;;;;;;5060926;28;44007;-71
2022/01/10 08:39:53;;;;;;;3.17;3.07;;;16.00;66.70;;;;;;5061343;28;43928;-71
2022/01/10 08:42:21;;;;;;;3.70;3.40;;;16.00;66.70;;;;;;5067592;28;43617;-71
2022/01/10 08:44:49;;;;;;;3.30;3.10;;;16.00;66.80;;;;;;5065543;28;46087;-70
2022/01/10 08:47:19;;;;;;;3.90;3.70;;;16.00;66.90;;;;;;5067504;28;44100;-71
2022/01/10 08:49:48;;;;;;;3.70;3.57;;;16.10;66.60;;;;;;5067384;28;43947;-70
2022/01/10 08:52:15;;;;;;;3.80;3.60;;;16.20;66.20;;;;;;5067841;28;43570;-71
2022/01/10 08:54:46;;;;;;;3.20;3.10;;;16.40;65.90;;;;;;5065681;28;46140;-71
2022/01/10 08:57:14;;;;;;;3.80;3.60;;;16.50;66.00;;;;;;5067211;28;43818;-71
2022/01/10 08:59:42;;;;;;;3.50;3.30;;;16.60;65.10;;;;;;5067094;28;44017;-71
2022/01/10 09:02:11;;;;;;;3.47;3.27;;;16.50;65.00;;;;;;5067453;28;44045;-71
2022/01/10 09:04:40;;;;;;;3.93;3.73;;;16.50;65.30;;;;;;5066996;28;43620;-71
2022/01/10 09:07:09;;;;;;;3.30;3.20;;;16.40;65.40;;;;;;5065497;28;45513;-71
2022/01/10 09:09:37;;;;;;;3.33;3.23;;;16.30;65.60;;;;;;5065969;28;44030;-70
2022/01/10 09:12:07;;;;;;;3.50;3.30;;;16.30;65.80;;;;;;5066735;28;43522;-71
2022/01/10 09:14:35;;;;;;;3.10;3.00;;;16.20;65.90;;;;;;5066631;28;43969;-71
2022/01/10 09:17:03;;;;;;;3.50;3.30;;;16.20;66.10;;;;;;5066683;28;43955;-71
2022/01/10 09:19:31;;;;;;;3.30;3.20;;;16.10;66.20;;;;;;5066725;28;44035;-71
2022/01/10 09:21:59;;;;;;;3.60;3.40;;;16.10;66.30;;;;;;5067143;28;43949;-71
2022/01/10 09:24:27;;;;;;;3.30;3.20;;;16.10;66.40;;;;;;5066486;28;43941;-71
2022/01/10 09:26:56;;;;;;;3.43;3.30;;;16.10;66.60;;;;;;5066673;28;43820;-73
2022/01/10 09:29:25;;;;;;;3.40;3.20;;;16.10;66.50;;;;;;5066674;28;43442;-71
2022/01/10 09:31:53;;;;;;;3.20;3.10;;;16.20;66.20;;;;;;5067063;28;44393;-72
2022/01/10 09:34:22;;;;;;;3.27;3.17;;;16.30;66.10;;;;;;5066393;28;44804;-71
2022/01/10 09:36:50;;;;;;;3.40;3.30;;;16.20;66.00;;;;;;5066282;28;44045;-73
2022/01/10 09:39:19;;;;;;;3.30;3.20;;;16.20;66.00;;;;;;5066590;28;43437;-70
2022/01/10 09:41:47;;;;;;;3.10;3.00;;;16.20;66.20;;;;;;5066922;28;43968;-70
2022/01/10 09:44:15;;;;;;;3.17;3.07;;;16.10;66.20;;;;;;5065997;28;44040;-70
2022/01/10 09:46:47;;;;;;;3.13;3.03;;;16.10;66.40;;;;;;5066330;28;44010;-71
2022/01/10 09:49:15;;;;;;;3.20;3.10;;;16.10;66.50;;;;;;5065089;28;43972;-71
2022/01/10 09:51:43;;;;;;;3.40;3.30;;;16.10;66.60;;;;;;5066729;28;43566;-71
2022/01/10 09:54:11;;;;;;;3.13;3.03;;;16.00;66.60;;;;;;5066137;28;45108;-70
2022/01/10 09:56:39;;;;;;;3.10;3.00;;;16.00;66.70;;;;;;5066269;28;44011;-70
2022/01/10 09:59:07;;;;;;;3.17;3.07;;;16.00;66.70;;;;;;5066740;28;43944;-71
2022/01/10 10:01:35;;;;;;;3.20;3.10;;;16.00;66.70;;;;;;5066850;28;43895;-71
2022/01/10 10:04:05;;;;;;;3.23;3.13;;;16.00;66.80;;;;;;5065971;28;44814;-72
2022/01/10 10:06:34;;;;;;;3.03;2.93;;;16.00;66.90;;;;;;5065717;28;43590;-71
2022/01/10 10:09:03;;;;;;;2.87;2.77;;;16.10;66.90;;;;;;5066124;28;43395;-70
2022/01/10 10:11:38;;;;;;;3.20;3.10;;;16.10;66.50;;;;;;5066449;28;43947;-70
2022/01/10 10:14:06;;;;;;;2.97;2.87;;;16.30;66.30;;;;;;5066093;28;45108;-70
2022/01/10 10:16:40;;;;;;;3.30;3.20;;;16.40;65.80;;;;;;5064796;28;43938;-71
2022/01/10 10:19:09;;;;;;;3.10;3.00;;;16.50;65.40;;;;;;5066351;28;43994;-70
2022/01/10 10:21:37;;;;;;;3.50;3.30;;;16.50;65.20;;;;;;5066785;28;44321;-70
2022/01/10 10:24:05;;;;;;;2.67;2.60;;;16.50;65.30;;;;;;5068792;28;43956;-70
2022/01/10 10:26:33;;;;;;;3.00;2.90;;;16.40;65.40;;;;;;5069591;28;43983;-71
2022/01/10 10:29:01;;;;;;;3.30;3.20;;;16.40;65.60;;;;;;5068219;28;43367;-71
2022/01/10 10:31:30;;;;;;;2.90;2.80;;;16.30;65.80;;;;;;5069966;28;43990;-71
2022/01/10 10:34:01;;;;;;;3.60;3.50;;;16.30;66.00;;;;;;5069199;28;44048;-70
2022/01/10 10:36:31;;;;;;;3.13;3.03;;;16.20;66.10;;;;;;5069206;28;43991;-70
2022/01/10 10:38:59;;;;;;;3.10;3.00;;;16.20;66.30;;;;;;5068094;28;44072;-71
2022/01/10 10:41:27;;;;;;;3.47;3.27;;;16.10;66.40;;;;;;5054955;28;43983;-70
2022/01/10 10:43:55;;;;;;;3.20;3.07;;;16.10;66.50;;;;;;5062516;28;44740;-70
2022/01/10 10:46:26;;;;;;;2.90;2.80;;;16.10;66.60;;;;;;5062790;28;43908;-71
2022/01/10 10:48:59;;;;;;;3.03;2.93;;;16.10;66.80;;;;;;5063143;28;43579;-70
2022/01/10 10:51:32;;;;;;;2.90;2.80;;;16.20;66.70;;;;;;5069804;28;43935;-70
2022/01/10 10:54:02;;;;;;;3.10;3.00;;;16.20;66.20;;;;;;5069064;28;44075;-71
2022/01/10 10:56:33;;;;;;;2.80;2.70;;;16.20;66.10;;;;;;5068934;28;43972;-71
2022/01/10 10:59:01;;;;;;;2.97;2.87;;;16.20;66.10;;;;;;5069085;28;44062;-70
2022/01/10 11:01:29;;;;;;;3.23;3.10;;;16.20;66.20;;;;;;5069635;28;43506;-70
2022/01/10 11:03:57;;;;;;;2.90;2.80;;;16.20;66.40;;;;;;5068718;28;43949;-71
2022/01/10 11:06:28;;;;;;;2.83;2.73;;;16.20;66.50;;;;;;5068293;28;43967;-71
2022/01/10 11:08:58;;;;;;;3.43;3.33;;;16.10;66.50;;;;;;5069266;28;43984;-70
2022/01/10 11:11:26;;;;;;;3.20;3.10;;;16.10;66.60;;;;;;5069209;28;43558;-71
2022/01/10 11:13:55;;;;;;;3.13;3.03;;;16.10;66.60;;;;;;5067124;28;46302;-72
2022/01/10 11:16:23;;;;;;;3.10;3.00;;;16.10;66.70;;;;;;5067298;28;45055;-70
2022/01/10 11:18:51;;;;;;;3.00;2.90;;;16.10;66.70;;;;;;5068839;28;43406;-71
2022/01/10 11:21:19;;;;;;;3.00;2.90;;;16.10;66.70;;;;;;5069143;28;43968;-70
2022/01/10 11:23:48;;;;;;;2.93;2.83;;;16.10;66.80;;;;;;5067008;28;45746;-71
2022/01/10 11:26:18;;;;;;;2.87;2.77;;;16.00;66.70;;;;;;5068593;28;43359;-71
2022/01/10 11:28:48;;;;;;;2.90;2.87;;;16.00;66.90;;;;;;5068512;28;44030;-71
2022/01/10 11:31:20;;;;;;;2.90;2.80;;;16.10;66.90;;;;;;5068781;28;43937;-71
2022/01/10 11:33:48;;;;;;;2.77;2.67;;;16.20;66.60;;;;;;5068423;28;43863;-71
2022/01/10 11:36:18;;;;;;;3.00;2.90;;;16.30;66.10;;;;;;5067940;28;44128;-70
2022/01/10 11:38:48;;;;;;;2.60;2.53;;;16.40;65.80;;;;;;5068337;28;44053;-70
2022/01/10 11:41:19;;;;;;;3.07;2.90;;;16.50;65.40;;;;;;5069055;28;43941;-71
2022/01/10 11:43:49;;;;;;;2.60;2.50;;;16.50;65.30;;;;;;5067682;28;45139;-70
2022/01/10 11:46:23;;;;;;;2.87;2.77;;;16.50;65.40;;;;;;5068123;28;43887;-71
2022/01/10 11:48:59;;;;;;;2.83;2.73;;;16.40;65.60;;;;;;5068870;28;43538;-71
2022/01/10 11:51:29;;;;;;;2.60;2.60;;;16.30;65.80;;;;;;5068575;28;44245;-71
2022/01/10 11:54:11;;;;;;;3.20;3.10;;;16.30;66.00;;;;;;5068073;28;43937;-71
2022/01/10 11:56:41;;;;;;;2.87;2.77;;;16.20;66.10;;;;;;5068373;28;43821;-71
2022/01/10 11:59:11;;;;;;;2.73;2.70;;;16.20;66.30;;;;;;5068547;28;44000;-71
2022/01/10 12:01:40;;;;;;;2.90;2.80;;;16.20;66.50;;;;;;5068652;28;44052;-71
2022/01/10 12:04:08;;;;;;;2.90;2.80;;;16.10;66.50;;;;;;5066890;28;44284;-71
2022/01/10 12:06:36;;;;;;;2.57;2.57;;;16.10;66.60;;;;;;5067887;28;43912;-71
2022/01/10 12:09:04;;;;;;;2.80;2.70;;;16.10;66.70;;;;;;5068077;28;43981;-70
2022/01/10 12:11:32;;;;;;;3.10;2.90;;;16.10;66.70;;;;;;5068524;28;43598;-71
2022/01/10 12:14:03;;;;;;;2.90;2.80;;;16.20;66.60;;;;;;5067853;28;44084;-71
2022/01/10 12:16:31;;;;;;;3.10;2.90;;;16.20;66.20;;;;;;5066648;28;46555;-70
2022/01/10 12:18:59;;;;;;;2.97;2.87;;;16.20;66.10;;;;;;5067821;28;43971;-71
2022/01/10 12:21:29;;;;;;;2.87;2.77;;;16.20;66.20;;;;;;5068339;28;43982;-71
2022/01/10 12:23:57;;;;;;;3.20;3.10;;;16.20;66.20;;;;;;5067618;28;44117;-71
2022/01/10 12:26:25;;;;;;;2.90;2.80;;;16.20;66.40;;;;;;5067404;28;44014;-70
2022/01/10 12:28:54;;;;;;;2.73;2.63;;;16.20;66.50;;;;;;5066408;28;43953;-71
2022/01/10 12:31:25;;;;;;;2.90;2.80;;;16.10;66.50;;;;;;5068033;28;44169;-71
2022/01/10 12:33:53;;;;;;;2.83;2.73;;;16.10;66.60;;;;;;5067722;28;44017;-71
2022/01/10 12:36:22;;;;;;;3.03;2.93;;;16.10;66.70;;;;;;5067337;28;43826;-70
2022/01/10 12:38:51;;;;;;;2.97;2.87;;;16.10;66.70;;;;;;5066162;28;43968;-71
2022/01/10 12:41:20;;;;;;;3.10;3.00;;;16.10;66.70;;;;;;5067891;28;43911;-71
2022/01/10 12:43:49;;;;;;;2.77;2.67;;;16.10;66.70;;;;;;5067211;28;43930;-71
2022/01/10 12:46:17;;;;;;;2.80;2.70;;;16.10;66.80;;;;;;5064445;28;45116;-71
2022/01/10 12:48:48;;;;;;;2.90;2.80;;;16.10;66.80;;;;;;5067552;28;43838;-71
2022/01/10 12:51:17;;;;;;;2.90;2.80;;;16.10;66.90;;;;;;5068000;28;43912;-71
2022/01/10 12:54:04;;;;;;;3.30;3.20;;;16.10;66.70;;;;;;5061893;28;45744;-71
2022/01/10 12:56:32;;;;;;;2.90;2.70;;;16.20;66.40;;;;;;5067042;28;43951;-71
2022/01/10 12:59:01;;;;;;;2.63;2.63;;;16.40;66.10;;;;;;5067032;28;43828;-71
2022/01/10 13:01:28;;;;;;;2.93;2.87;;;16.50;65.70;;;;;;5067636;28;44212;-71
2022/01/10 13:03:59;;;;;;;2.63;2.60;;;16.50;65.50;;;;;;5067185;28;43905;-71
2022/01/10 13:06:28;;;;;;;2.73;2.70;;;16.50;65.50;;;;;;5065342;28;44263;-71
2022/01/10 13:08:56;;;;;;;2.97;2.87;;;16.40;65.70;;;;;;5066943;28;43982;-71